sensor_id;sensor_type;location;lat;lon;timestamp;P1;durP1;ratioP1;P2;durP2;ratioP2
3781;SDS011;6881;49.962;7.718;2023-05-16T00:01:06;30.37;;;17.43;;
3781;SDS011;6881;49.962;7.718;2023-05-16T00:03:33;24.50;;;14.57;;
3781;SDS011;6881;49.962;7.718;2023-05-16T00:05:58;23.17;;;16.20;;
3781;SDS011;6881;49.962;7.718;2023-05-16T00:08:26;27.37;;;18.30;;
3781;SDS011;6881;49.962;7.718;2023-05-16T00:10:52;21.80;;;14.97;;
3781;SDS011;6881;49.962;7.718;2023-05-16T00:13:17;22.30;;;14.97;;
3781;SDS011;6881;49.962;7.718;2023-05-16T00:15:49;27.20;;;16.83;;
3781;SDS011;6881;49.962;7.718;2023-05-16T00:18:17;27.80;;;16.43;;
3781;SDS011;6881;49.962;7.718;2023-05-16T00:20:43;23.63;;;17.07;;
3781;SDS011;6881;49.962;7.718;2023-05-16T00:23:09;28.47;;;19.03;;
3781;SDS011;6881;49.962;7.718;2023-05-16T00:25:36;30.90;;;18.43;;
3781;SDS011;6881;49.962;7.718;2023-05-16T00:28:02;24.27;;;17.07;;
3781;SDS011;6881;49.962;7.718;2023-05-16T00:30:27;23.70;;;16.30;;
3781;SDS011;6881;49.962;7.718;2023-05-16T00:32:53;29.40;;;16.13;;
3781;SDS011;6881;49.962;7.718;2023-05-16T00:35:19;25.73;;;16.53;;
3781;SDS011;6881;49.962;7.718;2023-05-16T00:37:45;28.30;;;15.83;;
3781;SDS011;6881;49.962;7.718;2023-05-16T00:40:10;22.67;;;15.00;;
3781;SDS011;6881;49.962;7.718;2023-05-16T00:42:36;23.80;;;14.27;;
3781;SDS011;6881;49.962;7.718;2023-05-16T00:45:02;25.33;;;15.00;;
3781;SDS011;6881;49.962;7.718;2023-05-16T00:47:28;25.97;;;14.97;;
3781;SDS011;6881;49.962;7.718;2023-05-16T00:49:53;23.60;;;15.17;;
3781;SDS011;6881;49.962;7.718;2023-05-16T00:52:19;25.40;;;14.97;;
3781;SDS011;6881;49.962;7.718;2023-05-16T00:54:44;25.37;;;12.90;;
3781;SDS011;6881;49.962;7.718;2023-05-16T00:57:10;25.50;;;15.93;;
3781;SDS011;6881;49.962;7.718;2023-05-16T00:59:35;22.10;;;13.57;;
3781;SDS011;6881;49.962;7.718;2023-05-16T01:02:01;21.67;;;14.47;;
3781;SDS011;6881;49.962;7.718;2023-05-16T01:04:26;22.43;;;14.10;;
3781;SDS011;6881;49.962;7.718;2023-05-16T01:06:52;18.20;;;12.83;;
3781;SDS011;6881;49.962;7.718;2023-05-16T01:09:17;22.27;;;13.60;;
3781;SDS011;6881;49.962;7.718;2023-05-16T01:14:58;19.20;;;13.67;;
3781;SDS011;6881;49.962;7.718;2023-05-16T01:22:51;21.50;;;13.90;;
3781;SDS011;6881;49.962;7.718;2023-05-16T01:28:12;24.03;;;13.83;;
3781;SDS011;6881;49.962;7.718;2023-05-16T01:30:40;22.30;;;14.17;;
3781;SDS011;6881;49.962;7.718;2023-05-16T01:33:06;16.37;;;11.60;;
3781;SDS011;6881;49.962;7.718;2023-05-16T01:35:31;19.80;;;12.73;;
3781;SDS011;6881;49.962;7.718;2023-05-16T01:38:06;19.80;;;12.13;;
3781;SDS011;6881;49.962;7.718;2023-05-16T01:40:38;19.57;;;12.60;;
3781;SDS011;6881;49.962;7.718;2023-05-16T01:43:20;20.83;;;12.90;;
3781;SDS011;6881;49.962;7.718;2023-05-16T01:45:57;18.67;;;12.43;;
3781;SDS011;6881;49.962;7.718;2023-05-16T01:48:29;14.13;;;10.00;;
3781;SDS011;6881;49.962;7.718;2023-05-16T01:50:59;20.53;;;11.43;;
3781;SDS011;6881;49.962;7.718;2023-05-16T01:53:27;18.63;;;11.70;;
3781;SDS011;6881;49.962;7.718;2023-05-16T01:55:56;19.13;;;11.17;;
3781;SDS011;6881;49.962;7.718;2023-05-16T01:58:25;15.90;;;11.70;;
3781;SDS011;6881;49.962;7.718;2023-05-16T02:00:52;17.50;;;11.33;;
3781;SDS011;6881;49.962;7.718;2023-05-16T02:03:18;19.70;;;12.63;;
3781;SDS011;6881;49.962;7.718;2023-05-16T02:05:43;16.50;;;11.23;;
3781;SDS011;6881;49.962;7.718;2023-05-16T02:08:08;21.10;;;12.73;;
3781;SDS011;6881;49.962;7.718;2023-05-16T02:10:34;16.47;;;11.27;;
3781;SDS011;6881;49.962;7.718;2023-05-16T02:12:59;21.27;;;11.73;;
3781;SDS011;6881;49.962;7.718;2023-05-16T02:15:25;18.10;;;10.80;;
3781;SDS011;6881;49.962;7.718;2023-05-16T02:17:50;15.73;;;10.33;;
3781;SDS011;6881;49.962;7.718;2023-05-16T02:20:15;13.87;;;9.77;;
3781;SDS011;6881;49.962;7.718;2023-05-16T02:22:41;16.10;;;10.10;;
3781;SDS011;6881;49.962;7.718;2023-05-16T02:25:11;13.30;;;9.10;;
3781;SDS011;6881;49.962;7.718;2023-05-16T02:27:38;9.20;;;7.00;;
3781;SDS011;6881;49.962;7.718;2023-05-16T02:30:03;10.83;;;7.30;;
3781;SDS011;6881;49.962;7.718;2023-05-16T02:32:29;9.33;;;6.23;;
3781;SDS011;6881;49.962;7.718;2023-05-16T02:34:56;7.80;;;5.50;;
3781;SDS011;6881;49.962;7.718;2023-05-16T02:37:21;7.93;;;5.80;;
3781;SDS011;6881;49.962;7.718;2023-05-16T02:39:46;10.37;;;6.73;;
3781;SDS011;6881;49.962;7.718;2023-05-16T02:42:12;11.03;;;7.10;;
3781;SDS011;6881;49.962;7.718;2023-05-16T02:44:37;10.10;;;5.53;;
3781;SDS011;6881;49.962;7.718;2023-05-16T02:47:02;7.40;;;4.90;;
3781;SDS011;6881;49.962;7.718;2023-05-16T02:49:28;9.10;;;5.90;;
3781;SDS011;6881;49.962;7.718;2023-05-16T02:51:53;6.40;;;4.67;;
3781;SDS011;6881;49.962;7.718;2023-05-16T02:54:19;8.50;;;4.70;;
3781;SDS011;6881;49.962;7.718;2023-05-16T02:56:44;6.93;;;5.00;;
3781;SDS011;6881;49.962;7.718;2023-05-16T02:59:10;11.80;;;5.47;;
3781;SDS011;6881;49.962;7.718;2023-05-16T03:01:36;6.60;;;4.60;;
3781;SDS011;6881;49.962;7.718;2023-05-16T03:04:01;6.40;;;4.17;;
3781;SDS011;6881;49.962;7.718;2023-05-16T03:06:26;5.13;;;3.93;;
3781;SDS011;6881;49.962;7.718;2023-05-16T03:08:52;6.03;;;3.50;;
3781;SDS011;6881;49.962;7.718;2023-05-16T03:11:17;6.27;;;3.60;;
3781;SDS011;6881;49.962;7.718;2023-05-16T03:13:45;3.83;;;2.80;;
3781;SDS011;6881;49.962;7.718;2023-05-16T03:16:11;4.03;;;2.57;;
3781;SDS011;6881;49.962;7.718;2023-05-16T03:18:36;2.80;;;2.50;;
3781;SDS011;6881;49.962;7.718;2023-05-16T03:21:01;5.27;;;2.17;;
3781;SDS011;6881;49.962;7.718;2023-05-16T03:23:27;4.70;;;2.33;;
3781;SDS011;6881;49.962;7.718;2023-05-16T03:25:52;2.20;;;1.87;;
3781;SDS011;6881;49.962;7.718;2023-05-16T03:28:18;2.27;;;1.83;;
3781;SDS011;6881;49.962;7.718;2023-05-16T03:30:43;4.67;;;1.97;;
3781;SDS011;6881;49.962;7.718;2023-05-16T03:33:09;3.43;;;1.90;;
3781;SDS011;6881;49.962;7.718;2023-05-16T03:35:34;1.50;;;1.33;;
3781;SDS011;6881;49.962;7.718;2023-05-16T03:38:00;3.20;;;1.50;;
3781;SDS011;6881;49.962;7.718;2023-05-16T03:40:26;1.77;;;1.67;;
3781;SDS011;6881;49.962;7.718;2023-05-16T03:42:51;2.17;;;1.67;;
3781;SDS011;6881;49.962;7.718;2023-05-16T03:45:17;2.20;;;1.90;;
3781;SDS011;6881;49.962;7.718;2023-05-16T03:47:42;1.83;;;1.60;;
3781;SDS011;6881;49.962;7.718;2023-05-16T03:50:08;3.43;;;2.23;;
3781;SDS011;6881;49.962;7.718;2023-05-16T03:52:34;2.37;;;2.00;;
3781;SDS011;6881;49.962;7.718;2023-05-16T03:54:59;4.00;;;2.40;;
3781;SDS011;6881;49.962;7.718;2023-05-16T03:57:26;3.93;;;1.70;;
3781;SDS011;6881;49.962;7.718;2023-05-16T03:59:53;3.50;;;2.20;;
3781;SDS011;6881;49.962;7.718;2023-05-16T04:02:19;1.73;;;1.63;;
3781;SDS011;6881;49.962;7.718;2023-05-16T04:04:44;2.27;;;1.40;;
3781;SDS011;6881;49.962;7.718;2023-05-16T04:07:10;1.57;;;1.47;;
3781;SDS011;6881;49.962;7.718;2023-05-16T04:09:36;2.03;;;1.60;;
3781;SDS011;6881;49.962;7.718;2023-05-16T04:12:01;1.70;;;1.60;;
3781;SDS011;6881;49.962;7.718;2023-05-16T04:14:27;2.80;;;1.37;;
3781;SDS011;6881;49.962;7.718;2023-05-16T04:16:52;1.40;;;1.27;;
3781;SDS011;6881;49.962;7.718;2023-05-16T04:19:17;3.33;;;1.80;;
3781;SDS011;6881;49.962;7.718;2023-05-16T04:21:43;1.97;;;1.77;;
3781;SDS011;6881;49.962;7.718;2023-05-16T04:24:08;1.67;;;1.50;;
3781;SDS011;6881;49.962;7.718;2023-05-16T04:26:33;2.20;;;2.00;;
3781;SDS011;6881;49.962;7.718;2023-05-16T04:28:59;2.30;;;2.10;;
3781;SDS011;6881;49.962;7.718;2023-05-16T04:31:25;5.70;;;2.30;;
3781;SDS011;6881;49.962;7.718;2023-05-16T04:33:50;2.20;;;1.40;;
3781;SDS011;6881;49.962;7.718;2023-05-16T04:36:16;1.60;;;1.50;;
3781;SDS011;6881;49.962;7.718;2023-05-16T04:38:41;2.10;;;1.90;;
3781;SDS011;6881;49.962;7.718;2023-05-16T04:41:07;2.70;;;2.23;;
3781;SDS011;6881;49.962;7.718;2023-05-16T04:43:33;1.90;;;1.70;;
3781;SDS011;6881;49.962;7.718;2023-05-16T04:45:59;1.50;;;1.23;;
3781;SDS011;6881;49.962;7.718;2023-05-16T04:48:25;2.43;;;1.87;;
3781;SDS011;6881;49.962;7.718;2023-05-16T04:50:50;1.97;;;1.73;;
3781;SDS011;6881;49.962;7.718;2023-05-16T04:53:16;2.30;;;1.47;;
3781;SDS011;6881;49.962;7.718;2023-05-16T04:55:41;2.00;;;1.80;;
3781;SDS011;6881;49.962;7.718;2023-05-16T04:58:07;3.33;;;2.17;;
3781;SDS011;6881;49.962;7.718;2023-05-16T05:00:32;1.67;;;1.53;;
3781;SDS011;6881;49.962;7.718;2023-05-16T05:02:57;2.33;;;2.13;;
3781;SDS011;6881;49.962;7.718;2023-05-16T05:05:23;2.20;;;1.90;;
3781;SDS011;6881;49.962;7.718;2023-05-16T05:07:48;1.77;;;1.50;;
3781;SDS011;6881;49.962;7.718;2023-05-16T05:10:13;3.27;;;1.10;;
3781;SDS011;6881;49.962;7.718;2023-05-16T05:12:39;1.63;;;1.23;;
3781;SDS011;6881;49.962;7.718;2023-05-16T05:15:04;1.50;;;1.20;;
3781;SDS011;6881;49.962;7.718;2023-05-16T05:17:30;1.37;;;1.27;;
3781;SDS011;6881;49.962;7.718;2023-05-16T05:19:56;1.30;;;1.10;;
3781;SDS011;6881;49.962;7.718;2023-05-16T05:22:21;2.63;;;1.60;;
3781;SDS011;6881;49.962;7.718;2023-05-16T05:24:47;2.50;;;1.30;;
3781;SDS011;6881;49.962;7.718;2023-05-16T05:27:12;1.63;;;1.00;;
3781;SDS011;6881;49.962;7.718;2023-05-16T05:29:37;2.03;;;1.20;;
3781;SDS011;6881;49.962;7.718;2023-05-16T05:32:03;1.10;;;1.00;;
3781;SDS011;6881;49.962;7.718;2023-05-16T05:34:29;3.30;;;1.10;;
3781;SDS011;6881;49.962;7.718;2023-05-16T05:36:54;1.70;;;1.07;;
3781;SDS011;6881;49.962;7.718;2023-05-16T05:39:20;1.73;;;1.20;;
3781;SDS011;6881;49.962;7.718;2023-05-16T05:41:46;1.30;;;1.10;;
3781;SDS011;6881;49.962;7.718;2023-05-16T05:44:11;1.70;;;1.10;;
3781;SDS011;6881;49.962;7.718;2023-05-16T05:46:36;1.43;;;0.80;;
3781;SDS011;6881;49.962;7.718;2023-05-16T05:49:02;1.03;;;0.80;;
3781;SDS011;6881;49.962;7.718;2023-05-16T05:51:27;0.70;;;0.63;;
3781;SDS011;6881;49.962;7.718;2023-05-16T05:53:53;2.00;;;1.10;;
3781;SDS011;6881;49.962;7.718;2023-05-16T05:56:19;1.40;;;1.20;;
3781;SDS011;6881;49.962;7.718;2023-05-16T05:58:45;1.20;;;1.10;;
3781;SDS011;6881;49.962;7.718;2023-05-16T06:01:10;0.80;;;0.80;;
3781;SDS011;6881;49.962;7.718;2023-05-16T06:03:36;1.20;;;1.10;;
3781;SDS011;6881;49.962;7.718;2023-05-16T06:06:02;1.20;;;1.00;;
3781;SDS011;6881;49.962;7.718;2023-05-16T06:08:28;1.00;;;0.83;;
3781;SDS011;6881;49.962;7.718;2023-05-16T06:10:53;1.73;;;1.00;;
3781;SDS011;6881;49.962;7.718;2023-05-16T06:13:19;2.30;;;1.57;;
3781;SDS011;6881;49.962;7.718;2023-05-16T06:15:48;2.00;;;1.90;;
3781;SDS011;6881;49.962;7.718;2023-05-16T06:18:14;1.40;;;1.30;;
3781;SDS011;6881;49.962;7.718;2023-05-16T06:20:40;1.70;;;1.60;;
3781;SDS011;6881;49.962;7.718;2023-05-16T06:23:05;2.30;;;1.60;;
3781;SDS011;6881;49.962;7.718;2023-05-16T06:25:30;1.47;;;1.37;;
3781;SDS011;6881;49.962;7.718;2023-05-16T06:27:56;1.70;;;1.23;;
3781;SDS011;6881;49.962;7.718;2023-05-16T06:30:21;1.07;;;0.80;;
3781;SDS011;6881;49.962;7.718;2023-05-16T06:32:47;4.30;;;1.07;;
3781;SDS011;6881;49.962;7.718;2023-05-16T06:35:12;1.47;;;0.87;;
3781;SDS011;6881;49.962;7.718;2023-05-16T06:37:37;1.43;;;0.90;;
3781;SDS011;6881;49.962;7.718;2023-05-16T06:40:03;0.97;;;0.87;;
3781;SDS011;6881;49.962;7.718;2023-05-16T06:42:29;1.33;;;0.90;;
3781;SDS011;6881;49.962;7.718;2023-05-16T06:44:55;1.00;;;0.80;;
3781;SDS011;6881;49.962;7.718;2023-05-16T06:47:20;1.23;;;0.83;;
3781;SDS011;6881;49.962;7.718;2023-05-16T06:49:45;1.97;;;1.20;;
3781;SDS011;6881;49.962;7.718;2023-05-16T06:52:11;1.03;;;0.93;;
3781;SDS011;6881;49.962;7.718;2023-05-16T06:54:36;1.63;;;0.90;;
3781;SDS011;6881;49.962;7.718;2023-05-16T06:57:02;2.17;;;1.20;;
3781;SDS011;6881;49.962;7.718;2023-05-16T06:59:28;1.77;;;1.03;;
3781;SDS011;6881;49.962;7.718;2023-05-16T07:01:53;1.47;;;1.07;;
3781;SDS011;6881;49.962;7.718;2023-05-16T07:04:19;1.40;;;1.00;;
3781;SDS011;6881;49.962;7.718;2023-05-16T07:06:44;1.50;;;1.40;;
3781;SDS011;6881;49.962;7.718;2023-05-16T07:09:09;2.47;;;1.17;;
3781;SDS011;6881;49.962;7.718;2023-05-16T07:11:35;4.90;;;1.37;;
3781;SDS011;6881;49.962;7.718;2023-05-16T07:14:01;1.30;;;1.20;;
3781;SDS011;6881;49.962;7.718;2023-05-16T07:16:26;1.47;;;1.20;;
3781;SDS011;6881;49.962;7.718;2023-05-16T07:18:52;2.03;;;1.60;;
3781;SDS011;6881;49.962;7.718;2023-05-16T07:21:18;2.30;;;1.63;;
3781;SDS011;6881;49.962;7.718;2023-05-16T07:23:43;2.27;;;1.53;;
3781;SDS011;6881;49.962;7.718;2023-05-16T07:26:09;1.80;;;1.70;;
3781;SDS011;6881;49.962;7.718;2023-05-16T07:28:34;1.77;;;1.67;;
3781;SDS011;6881;49.962;7.718;2023-05-16T07:30:59;5.77;;;1.90;;
3781;SDS011;6881;49.962;7.718;2023-05-16T07:33:25;3.73;;;1.80;;
3781;SDS011;6881;49.962;7.718;2023-05-16T07:35:51;1.47;;;1.33;;
3781;SDS011;6881;49.962;7.718;2023-05-16T07:38:17;2.20;;;1.57;;
3781;SDS011;6881;49.962;7.718;2023-05-16T07:40:45;1.40;;;1.23;;
3781;SDS011;6881;49.962;7.718;2023-05-16T07:43:10;4.00;;;1.50;;
3781;SDS011;6881;49.962;7.718;2023-05-16T07:45:35;4.23;;;1.50;;
3781;SDS011;6881;49.962;7.718;2023-05-16T07:48:01;2.90;;;2.17;;
3781;SDS011;6881;49.962;7.718;2023-05-16T07:50:26;2.63;;;1.97;;
3781;SDS011;6881;49.962;7.718;2023-05-16T07:52:51;2.30;;;2.10;;
3781;SDS011;6881;49.962;7.718;2023-05-16T07:55:17;2.20;;;1.50;;
3781;SDS011;6881;49.962;7.718;2023-05-16T07:57:42;2.50;;;1.90;;
3781;SDS011;6881;49.962;7.718;2023-05-16T08:00:08;6.03;;;1.80;;
3781;SDS011;6881;49.962;7.718;2023-05-16T08:02:34;2.37;;;1.70;;
3781;SDS011;6881;49.962;7.718;2023-05-16T08:04:59;2.50;;;1.90;;
3781;SDS011;6881;49.962;7.718;2023-05-16T08:07:24;2.70;;;1.93;;
3781;SDS011;6881;49.962;7.718;2023-05-16T08:09:50;4.30;;;2.40;;
3781;SDS011;6881;49.962;7.718;2023-05-16T08:12:15;3.73;;;2.23;;
3781;SDS011;6881;49.962;7.718;2023-05-16T08:14:41;4.37;;;3.30;;
3781;SDS011;6881;49.962;7.718;2023-05-16T08:17:06;4.90;;;2.97;;
3781;SDS011;6881;49.962;7.718;2023-05-16T08:19:31;5.77;;;2.50;;
3781;SDS011;6881;49.962;7.718;2023-05-16T08:21:57;3.53;;;2.30;;
3781;SDS011;6881;49.962;7.718;2023-05-16T08:24:22;6.73;;;2.50;;
3781;SDS011;6881;49.962;7.718;2023-05-16T08:26:48;4.13;;;2.20;;
3781;SDS011;6881;49.962;7.718;2023-05-16T08:29:14;3.33;;;2.27;;
3781;SDS011;6881;49.962;7.718;2023-05-16T08:31:39;2.33;;;2.13;;
3781;SDS011;6881;49.962;7.718;2023-05-16T08:34:05;2.90;;;2.17;;
3781;SDS011;6881;49.962;7.718;2023-05-16T08:36:30;8.43;;;2.07;;
3781;SDS011;6881;49.962;7.718;2023-05-16T08:38:55;3.50;;;2.30;;
3781;SDS011;6881;49.962;7.718;2023-05-16T08:41:21;4.83;;;2.20;;
3781;SDS011;6881;49.962;7.718;2023-05-16T08:43:46;3.00;;;2.30;;
3781;SDS011;6881;49.962;7.718;2023-05-16T08:46:12;8.47;;;2.90;;
3781;SDS011;6881;49.962;7.718;2023-05-16T08:48:37;2.67;;;2.30;;
3781;SDS011;6881;49.962;7.718;2023-05-16T08:51:02;5.70;;;2.90;;
3781;SDS011;6881;49.962;7.718;2023-05-16T08:53:31;3.73;;;2.73;;
3781;SDS011;6881;49.962;7.718;2023-05-16T08:55:58;6.57;;;3.07;;
3781;SDS011;6881;49.962;7.718;2023-05-16T08:58:24;5.17;;;2.30;;
3781;SDS011;6881;49.962;7.718;2023-05-16T09:00:50;4.03;;;3.20;;
3781;SDS011;6881;49.962;7.718;2023-05-16T09:03:16;6.50;;;3.70;;
3781;SDS011;6881;49.962;7.718;2023-05-16T09:05:41;7.00;;;4.23;;
3781;SDS011;6881;49.962;7.718;2023-05-16T09:08:07;6.77;;;3.50;;
3781;SDS011;6881;49.962;7.718;2023-05-16T09:10:32;9.00;;;5.13;;
3781;SDS011;6881;49.962;7.718;2023-05-16T09:12:57;5.43;;;4.90;;
3781;SDS011;6881;49.962;7.718;2023-05-16T09:15:23;7.60;;;4.17;;
3781;SDS011;6881;49.962;7.718;2023-05-16T09:17:58;5.90;;;4.00;;
3781;SDS011;6881;49.962;7.718;2023-05-16T09:20:24;13.40;;;5.33;;
3781;SDS011;6881;49.962;7.718;2023-05-16T09:22:51;6.80;;;3.50;;
3781;SDS011;6881;49.962;7.718;2023-05-16T09:25:21;10.00;;;3.63;;
3781;SDS011;6881;49.962;7.718;2023-05-16T09:27:47;9.13;;;3.80;;
3781;SDS011;6881;49.962;7.718;2023-05-16T09:30:17;7.03;;;3.60;;
3781;SDS011;6881;49.962;7.718;2023-05-16T09:32:45;5.40;;;3.33;;
3781;SDS011;6881;49.962;7.718;2023-05-16T09:35:14;4.80;;;2.83;;
3781;SDS011;6881;49.962;7.718;2023-05-16T09:37:47;3.60;;;3.07;;
3781;SDS011;6881;49.962;7.718;2023-05-16T09:40:13;7.27;;;4.37;;
3781;SDS011;6881;49.962;7.718;2023-05-16T09:42:38;4.77;;;3.43;;
3781;SDS011;6881;49.962;7.718;2023-05-16T09:45:04;8.73;;;2.57;;
3781;SDS011;6881;49.962;7.718;2023-05-16T09:47:30;6.43;;;3.93;;
3781;SDS011;6881;49.962;7.718;2023-05-16T09:49:55;4.10;;;3.70;;
3781;SDS011;6881;49.962;7.718;2023-05-16T09:52:21;4.07;;;3.10;;
3781;SDS011;6881;49.962;7.718;2023-05-16T09:54:46;5.97;;;2.70;;
3781;SDS011;6881;49.962;7.718;2023-05-16T09:57:18;6.50;;;2.60;;
3781;SDS011;6881;49.962;7.718;2023-05-16T09:59:44;5.17;;;2.40;;
3781;SDS011;6881;49.962;7.718;2023-05-16T10:02:09;5.20;;;2.40;;
3781;SDS011;6881;49.962;7.718;2023-05-16T10:04:35;6.30;;;2.90;;
3781;SDS011;6881;49.962;7.718;2023-05-16T10:07:01;5.30;;;3.30;;
3781;SDS011;6881;49.962;7.718;2023-05-16T10:09:27;8.33;;;2.93;;
3781;SDS011;6881;49.962;7.718;2023-05-16T10:11:54;5.60;;;2.70;;
3781;SDS011;6881;49.962;7.718;2023-05-16T10:14:20;4.20;;;2.27;;
3781;SDS011;6881;49.962;7.718;2023-05-16T10:16:47;6.50;;;3.33;;
3781;SDS011;6881;49.962;7.718;2023-05-16T10:19:14;6.70;;;3.10;;
3781;SDS011;6881;49.962;7.718;2023-05-16T10:21:41;8.63;;;7.07;;
3781;SDS011;6881;49.962;7.718;2023-05-16T10:24:10;4.47;;;2.47;;
3781;SDS011;6881;49.962;7.718;2023-05-16T10:26:36;7.07;;;2.60;;
3781;SDS011;6881;49.962;7.718;2023-05-16T10:29:01;6.63;;;3.47;;
3781;SDS011;6881;49.962;7.718;2023-05-16T10:31:27;4.03;;;1.97;;
3781;SDS011;6881;49.962;7.718;2023-05-16T10:33:53;6.80;;;2.00;;
3781;SDS011;6881;49.962;7.718;2023-05-16T10:36:20;4.90;;;2.80;;
3781;SDS011;6881;49.962;7.718;2023-05-16T10:38:45;11.13;;;3.37;;
3781;SDS011;6881;49.962;7.718;2023-05-16T10:41:11;4.40;;;1.97;;
3781;SDS011;6881;49.962;7.718;2023-05-16T10:43:37;4.60;;;1.90;;
3781;SDS011;6881;49.962;7.718;2023-05-16T10:46:03;5.10;;;2.30;;
3781;SDS011;6881;49.962;7.718;2023-05-16T10:48:31;7.00;;;3.10;;
3781;SDS011;6881;49.962;7.718;2023-05-16T10:51:01;3.07;;;2.17;;
3781;SDS011;6881;49.962;7.718;2023-05-16T10:53:34;3.13;;;1.77;;
3781;SDS011;6881;49.962;7.718;2023-05-16T11:01:13;3.37;;;2.80;;
3781;SDS011;6881;49.962;7.718;2023-05-16T11:03:38;7.57;;;1.90;;
3781;SDS011;6881;49.962;7.718;2023-05-16T11:06:25;5.43;;;2.13;;
3781;SDS011;6881;49.962;7.718;2023-05-16T11:14:08;3.17;;;1.33;;
3781;SDS011;6881;49.962;7.718;2023-05-16T11:16:37;3.10;;;1.50;;
3781;SDS011;6881;49.962;7.718;2023-05-16T11:19:06;3.07;;;1.50;;
3781;SDS011;6881;49.962;7.718;2023-05-16T11:24:36;1.87;;;1.23;;
3781;SDS011;6881;49.962;7.718;2023-05-16T11:27:03;5.70;;;2.73;;
3781;SDS011;6881;49.962;7.718;2023-05-16T11:29:35;4.17;;;1.60;;
3781;SDS011;6881;49.962;7.718;2023-05-16T11:32:02;4.83;;;1.43;;
3781;SDS011;6881;49.962;7.718;2023-05-16T11:34:30;2.23;;;1.33;;
3781;SDS011;6881;49.962;7.718;2023-05-16T11:36:57;3.23;;;1.13;;
3781;SDS011;6881;49.962;7.718;2023-05-16T11:39:24;2.93;;;1.33;;
3781;SDS011;6881;49.962;7.718;2023-05-16T11:41:50;4.40;;;1.90;;
3781;SDS011;6881;49.962;7.718;2023-05-16T11:44:15;3.83;;;1.30;;
3781;SDS011;6881;49.962;7.718;2023-05-16T11:46:41;3.80;;;1.37;;
3781;SDS011;6881;49.962;7.718;2023-05-16T11:49:07;5.43;;;1.73;;
3781;SDS011;6881;49.962;7.718;2023-05-16T11:51:33;3.50;;;1.63;;
3781;SDS011;6881;49.962;7.718;2023-05-16T11:54:06;5.43;;;1.80;;
3781;SDS011;6881;49.962;7.718;2023-05-16T11:56:36;3.40;;;1.47;;
3781;SDS011;6881;49.962;7.718;2023-05-16T11:59:02;3.17;;;1.57;;
3781;SDS011;6881;49.962;7.718;2023-05-16T12:01:32;4.83;;;1.67;;
3781;SDS011;6881;49.962;7.718;2023-05-16T12:03:58;2.60;;;1.20;;
3781;SDS011;6881;49.962;7.718;2023-05-16T12:06:23;6.60;;;1.27;;
3781;SDS011;6881;49.962;7.718;2023-05-16T12:08:49;3.07;;;1.40;;
3781;SDS011;6881;49.962;7.718;2023-05-16T12:11:15;5.30;;;1.37;;
3781;SDS011;6881;49.962;7.718;2023-05-16T12:13:41;5.87;;;1.80;;
3781;SDS011;6881;49.962;7.718;2023-05-16T12:16:06;7.20;;;1.90;;
3781;SDS011;6881;49.962;7.718;2023-05-16T12:18:32;2.93;;;1.10;;
3781;SDS011;6881;49.962;7.718;2023-05-16T12:20:57;3.47;;;1.30;;
3781;SDS011;6881;49.962;7.718;2023-05-16T12:23:23;3.00;;;1.40;;
3781;SDS011;6881;49.962;7.718;2023-05-16T12:25:50;2.60;;;1.60;;
3781;SDS011;6881;49.962;7.718;2023-05-16T12:28:17;2.00;;;1.30;;
3781;SDS011;6881;49.962;7.718;2023-05-16T12:30:43;3.73;;;1.40;;
3781;SDS011;6881;49.962;7.718;2023-05-16T12:33:10;3.40;;;1.30;;
3781;SDS011;6881;49.962;7.718;2023-05-16T12:35:37;2.50;;;1.40;;
3781;SDS011;6881;49.962;7.718;2023-05-16T12:38:04;1.87;;;1.17;;
3781;SDS011;6881;49.962;7.718;2023-05-16T12:40:35;2.33;;;1.30;;
3781;SDS011;6881;49.962;7.718;2023-05-16T12:43:01;2.70;;;1.50;;
3781;SDS011;6881;49.962;7.718;2023-05-16T12:45:26;3.00;;;2.00;;
3781;SDS011;6881;49.962;7.718;2023-05-16T12:47:52;2.73;;;1.30;;
3781;SDS011;6881;49.962;7.718;2023-05-16T12:50:17;3.20;;;1.57;;
3781;SDS011;6881;49.962;7.718;2023-05-16T12:52:49;2.23;;;1.67;;
3781;SDS011;6881;49.962;7.718;2023-05-16T12:55:17;2.63;;;1.77;;
3781;SDS011;6881;49.962;7.718;2023-05-16T12:57:43;6.07;;;1.77;;
3781;SDS011;6881;49.962;7.718;2023-05-16T13:00:10;3.83;;;1.40;;
3781;SDS011;6881;49.962;7.718;2023-05-16T13:02:36;4.17;;;1.20;;
3781;SDS011;6881;49.962;7.718;2023-05-16T13:05:02;3.03;;;1.43;;
3781;SDS011;6881;49.962;7.718;2023-05-16T13:07:28;2.57;;;1.60;;
3781;SDS011;6881;49.962;7.718;2023-05-16T13:09:54;3.20;;;1.30;;
3781;SDS011;6881;49.962;7.718;2023-05-16T13:12:19;1.73;;;1.53;;
3781;SDS011;6881;49.962;7.718;2023-05-16T13:14:46;3.23;;;1.27;;
3781;SDS011;6881;49.962;7.718;2023-05-16T13:17:11;2.50;;;1.40;;
3781;SDS011;6881;49.962;7.718;2023-05-16T13:19:37;3.90;;;1.37;;
3781;SDS011;6881;49.962;7.718;2023-05-16T13:22:02;2.47;;;1.57;;
3781;SDS011;6881;49.962;7.718;2023-05-16T13:24:28;4.10;;;1.30;;
3781;SDS011;6881;49.962;7.718;2023-05-16T13:26:53;4.27;;;1.30;;
3781;SDS011;6881;49.962;7.718;2023-05-16T13:29:18;2.10;;;1.27;;
3781;SDS011;6881;49.962;7.718;2023-05-16T13:31:44;3.63;;;1.53;;
3781;SDS011;6881;49.962;7.718;2023-05-16T13:34:09;8.17;;;1.80;;
3781;SDS011;6881;49.962;7.718;2023-05-16T13:36:34;2.17;;;1.50;;
3781;SDS011;6881;49.962;7.718;2023-05-16T13:39:00;1.77;;;1.20;;
3781;SDS011;6881;49.962;7.718;2023-05-16T13:41:26;8.70;;;2.63;;
3781;SDS011;6881;49.962;7.718;2023-05-16T13:43:51;2.23;;;2.03;;
3781;SDS011;6881;49.962;7.718;2023-05-16T13:46:16;2.40;;;1.33;;
3781;SDS011;6881;49.962;7.718;2023-05-16T13:48:42;1.60;;;1.20;;
3781;SDS011;6881;49.962;7.718;2023-05-16T13:51:07;1.50;;;1.30;;
3781;SDS011;6881;49.962;7.718;2023-05-16T13:53:34;2.03;;;1.30;;
3781;SDS011;6881;49.962;7.718;2023-05-16T13:56:00;2.30;;;1.43;;
3781;SDS011;6881;49.962;7.718;2023-05-16T13:58:25;3.27;;;1.40;;
3781;SDS011;6881;49.962;7.718;2023-05-16T14:00:51;1.57;;;1.30;;
3781;SDS011;6881;49.962;7.718;2023-05-16T14:03:16;2.10;;;1.83;;
3781;SDS011;6881;49.962;7.718;2023-05-16T14:05:41;2.13;;;1.80;;
3781;SDS011;6881;49.962;7.718;2023-05-16T14:08:07;2.20;;;1.40;;
3781;SDS011;6881;49.962;7.718;2023-05-16T14:10:32;3.70;;;1.30;;
3781;SDS011;6881;49.962;7.718;2023-05-16T14:12:57;3.30;;;1.27;;
3781;SDS011;6881;49.962;7.718;2023-05-16T14:15:23;3.50;;;2.40;;
3781;SDS011;6881;49.962;7.718;2023-05-16T14:17:48;2.33;;;1.40;;
3781;SDS011;6881;49.962;7.718;2023-05-16T14:20:14;1.60;;;1.50;;
3781;SDS011;6881;49.962;7.718;2023-05-16T14:22:39;4.23;;;1.30;;
3781;SDS011;6881;49.962;7.718;2023-05-16T14:25:05;4.10;;;1.57;;
3781;SDS011;6881;49.962;7.718;2023-05-16T14:27:31;2.47;;;1.37;;
3781;SDS011;6881;49.962;7.718;2023-05-16T14:29:56;1.60;;;1.10;;
3781;SDS011;6881;49.962;7.718;2023-05-16T14:32:22;2.10;;;1.67;;
3781;SDS011;6881;49.962;7.718;2023-05-16T14:34:48;7.07;;;1.90;;
3781;SDS011;6881;49.962;7.718;2023-05-16T14:37:13;1.67;;;1.10;;
3781;SDS011;6881;49.962;7.718;2023-05-16T14:39:40;2.47;;;1.30;;
3781;SDS011;6881;49.962;7.718;2023-05-16T14:42:06;3.27;;;1.43;;
3781;SDS011;6881;49.962;7.718;2023-05-16T14:44:31;1.47;;;1.10;;
3781;SDS011;6881;49.962;7.718;2023-05-16T14:46:56;3.27;;;1.20;;
3781;SDS011;6881;49.962;7.718;2023-05-16T14:49:22;3.50;;;1.50;;
3781;SDS011;6881;49.962;7.718;2023-05-16T14:51:47;1.57;;;1.10;;
3781;SDS011;6881;49.962;7.718;2023-05-16T14:54:15;2.70;;;2.10;;
3781;SDS011;6881;49.962;7.718;2023-05-16T14:56:41;3.90;;;1.70;;
3781;SDS011;6881;49.962;7.718;2023-05-16T14:59:06;2.77;;;1.10;;
3781;SDS011;6881;49.962;7.718;2023-05-16T15:01:31;2.40;;;1.40;;
3781;SDS011;6881;49.962;7.718;2023-05-16T15:03:57;2.50;;;1.27;;
3781;SDS011;6881;49.962;7.718;2023-05-16T15:06:23;3.03;;;1.10;;
3781;SDS011;6881;49.962;7.718;2023-05-16T15:08:48;2.47;;;1.07;;
3781;SDS011;6881;49.962;7.718;2023-05-16T15:11:13;4.50;;;1.50;;
3781;SDS011;6881;49.962;7.718;2023-05-16T15:13:39;3.10;;;1.17;;
3781;SDS011;6881;49.962;7.718;2023-05-16T15:16:04;1.57;;;1.00;;
3781;SDS011;6881;49.962;7.718;2023-05-16T15:18:30;1.67;;;1.40;;
3781;SDS011;6881;49.962;7.718;2023-05-16T15:20:55;3.43;;;1.10;;
3781;SDS011;6881;49.962;7.718;2023-05-16T15:23:21;2.20;;;1.33;;
3781;SDS011;6881;49.962;7.718;2023-05-16T15:25:46;1.83;;;1.13;;
3781;SDS011;6881;49.962;7.718;2023-05-16T15:28:11;2.27;;;1.80;;